sensor_id;sensor_type;location;lat;lon;timestamp;P1;durP1;ratioP1;P2;durP2;ratioP2
4686;SDS011;2357;47.316;-1.348;2022-11-13T00:03:33;8.80;;;6.07;;
4686;SDS011;2357;47.316;-1.348;2022-11-13T00:05:59;14.47;;;6.37;;
4686;SDS011;2357;47.316;-1.348;2022-11-13T00:08:26;8.90;;;6.10;;
4686;SDS011;2357;47.316;-1.348;2022-11-13T00:10:58;9.50;;;7.13;;
4686;SDS011;2357;47.316;-1.348;2022-11-13T00:13:25;9.60;;;6.87;;
4686;SDS011;2357;47.316;-1.348;2022-11-13T00:15:57;10.23;;;5.97;;
4686;SDS011;2357;47.316;-1.348;2022-11-13T00:18:24;11.90;;;5.67;;
4686;SDS011;2357;47.316;-1.348;2022-11-13T00:20:50;9.23;;;6.97;;
4686;SDS011;2357;47.316;-1.348;2022-11-13T00:23:16;19.37;;;7.20;;
4686;SDS011;2357;47.316;-1.348;2022-11-13T00:25:41;17.50;;;6.80;;
4686;SDS011;2357;47.316;-1.348;2022-11-13T00:28:07;11.33;;;6.47;;
4686;SDS011;2357;47.316;-1.348;2022-11-13T00:30:32;10.03;;;6.27;;
4686;SDS011;2357;47.316;-1.348;2022-11-13T00:32:58;9.10;;;5.80;;
4686;SDS011;2357;47.316;-1.348;2022-11-13T00:35:23;8.07;;;5.87;;
4686;SDS011;2357;47.316;-1.348;2022-11-13T00:37:49;7.80;;;5.77;;
4686;SDS011;2357;47.316;-1.348;2022-11-13T00:40:15;15.03;;;6.57;;
4686;SDS011;2357;47.316;-1.348;2022-11-13T00:42:40;10.03;;;6.30;;
4686;SDS011;2357;47.316;-1.348;2022-11-13T00:45:06;14.43;;;7.03;;
4686;SDS011;2357;47.316;-1.348;2022-11-13T00:47:33;13.07;;;7.60;;
4686;SDS011;2357;47.316;-1.348;2022-11-13T00:49:59;11.00;;;7.50;;
4686;SDS011;2357;47.316;-1.348;2022-11-13T00:52:25;11.00;;;7.90;;
4686;SDS011;2357;47.316;-1.348;2022-11-13T00:54:50;13.43;;;7.20;;
4686;SDS011;2357;47.316;-1.348;2022-11-13T00:57:16;15.47;;;6.70;;
4686;SDS011;2357;47.316;-1.348;2022-11-13T00:59:41;12.30;;;6.80;;
4686;SDS011;2357;47.316;-1.348;2022-11-13T01:02:07;9.23;;;6.67;;
4686;SDS011;2357;47.316;-1.348;2022-11-13T01:04:34;8.80;;;6.23;;
4686;SDS011;2357;47.316;-1.348;2022-11-13T01:06:59;11.40;;;7.20;;
4686;SDS011;2357;47.316;-1.348;2022-11-13T01:09:25;14.97;;;7.73;;
4686;SDS011;2357;47.316;-1.348;2022-11-13T01:11:50;12.77;;;7.73;;
4686;SDS011;2357;47.316;-1.348;2022-11-13T01:14:16;8.53;;;6.43;;
4686;SDS011;2357;47.316;-1.348;2022-11-13T01:16:42;13.00;;;7.30;;
4686;SDS011;2357;47.316;-1.348;2022-11-13T01:19:07;11.80;;;7.07;;
4686;SDS011;2357;47.316;-1.348;2022-11-13T01:21:33;15.57;;;8.20;;
4686;SDS011;2357;47.316;-1.348;2022-11-13T01:23:59;9.87;;;6.80;;
4686;SDS011;2357;47.316;-1.348;2022-11-13T01:26:26;12.30;;;7.80;;
4686;SDS011;2357;47.316;-1.348;2022-11-13T01:28:53;7.30;;;6.53;;
4686;SDS011;2357;47.316;-1.348;2022-11-13T01:31:21;13.30;;;7.77;;
4686;SDS011;2357;47.316;-1.348;2022-11-13T01:33:48;11.20;;;7.53;;
4686;SDS011;2357;47.316;-1.348;2022-11-13T01:36:15;11.77;;;7.47;;
4686;SDS011;2357;47.316;-1.348;2022-11-13T01:38:43;11.60;;;7.97;;
4686;SDS011;2357;47.316;-1.348;2022-11-13T01:44:05;10.73;;;7.80;;
4686;SDS011;2357;47.316;-1.348;2022-11-13T01:46:37;10.90;;;8.30;;
4686;SDS011;2357;47.316;-1.348;2022-11-13T01:51:35;10.40;;;7.50;;
4686;SDS011;2357;47.316;-1.348;2022-11-13T01:54:27;8.10;;;7.30;;
4686;SDS011;2357;47.316;-1.348;2022-11-13T01:56:55;18.90;;;7.47;;
4686;SDS011;2357;47.316;-1.348;2022-11-13T01:59:29;11.90;;;7.27;;
4686;SDS011;2357;47.316;-1.348;2022-11-13T02:02:00;22.70;;;7.60;;
4686;SDS011;2357;47.316;-1.348;2022-11-13T02:04:26;8.93;;;6.50;;
4686;SDS011;2357;47.316;-1.348;2022-11-13T02:06:53;8.73;;;6.10;;
4686;SDS011;2357;47.316;-1.348;2022-11-13T02:09:23;7.83;;;7.00;;
4686;SDS011;2357;47.316;-1.348;2022-11-13T02:11:51;8.60;;;6.47;;
4686;SDS011;2357;47.316;-1.348;2022-11-13T02:14:17;12.37;;;7.37;;
4686;SDS011;2357;47.316;-1.348;2022-11-13T02:16:46;7.30;;;6.60;;
4686;SDS011;2357;47.316;-1.348;2022-11-13T02:19:16;8.87;;;6.40;;
4686;SDS011;2357;47.316;-1.348;2022-11-13T02:22:10;13.50;;;7.00;;
4686;SDS011;2357;47.316;-1.348;2022-11-13T02:24:46;11.47;;;7.47;;
4686;SDS011;2357;47.316;-1.348;2022-11-13T02:27:20;9.20;;;7.23;;
4686;SDS011;2357;47.316;-1.348;2022-11-13T02:29:51;6.13;;;5.40;;
4686;SDS011;2357;47.316;-1.348;2022-11-13T02:32:17;11.43;;;7.07;;
4686;SDS011;2357;47.316;-1.348;2022-11-13T02:34:43;8.93;;;6.43;;
4686;SDS011;2357;47.316;-1.348;2022-11-13T02:37:08;13.20;;;6.90;;
4686;SDS011;2357;47.316;-1.348;2022-11-13T02:39:34;9.17;;;7.07;;
4686;SDS011;2357;47.316;-1.348;2022-11-13T02:42:00;9.87;;;6.73;;
4686;SDS011;2357;47.316;-1.348;2022-11-13T02:44:26;7.80;;;6.33;;
4686;SDS011;2357;47.316;-1.348;2022-11-13T02:46:51;11.53;;;7.07;;
4686;SDS011;2357;47.316;-1.348;2022-11-13T02:49:17;16.13;;;6.80;;
4686;SDS011;2357;47.316;-1.348;2022-11-13T02:51:42;7.30;;;6.70;;
4686;SDS011;2357;47.316;-1.348;2022-11-13T02:54:08;7.63;;;6.90;;
4686;SDS011;2357;47.316;-1.348;2022-11-13T02:56:34;7.97;;;6.37;;
4686;SDS011;2357;47.316;-1.348;2022-11-13T02:58:59;6.90;;;5.77;;
4686;SDS011;2357;47.316;-1.348;2022-11-13T03:01:25;12.90;;;7.03;;
4686;SDS011;2357;47.316;-1.348;2022-11-13T03:03:51;9.37;;;6.43;;
4686;SDS011;2357;47.316;-1.348;2022-11-13T03:06:17;7.03;;;6.23;;
4686;SDS011;2357;47.316;-1.348;2022-11-13T03:08:42;7.23;;;6.10;;
4686;SDS011;2357;47.316;-1.348;2022-11-13T03:11:09;7.17;;;5.77;;
4686;SDS011;2357;47.316;-1.348;2022-11-13T03:13:35;9.50;;;5.43;;
4686;SDS011;2357;47.316;-1.348;2022-11-13T03:16:09;6.60;;;5.57;;
4686;SDS011;2357;47.316;-1.348;2022-11-13T03:18:37;6.90;;;5.50;;
4686;SDS011;2357;47.316;-1.348;2022-11-13T03:21:20;15.97;;;6.40;;
4686;SDS011;2357;47.316;-1.348;2022-11-13T03:23:46;6.43;;;5.80;;
4686;SDS011;2357;47.316;-1.348;2022-11-13T03:26:12;5.93;;;5.33;;
4686;SDS011;2357;47.316;-1.348;2022-11-13T03:28:39;5.93;;;5.33;;
4686;SDS011;2357;47.316;-1.348;2022-11-13T03:31:05;5.97;;;5.40;;
4686;SDS011;2357;47.316;-1.348;2022-11-13T03:33:31;6.13;;;4.80;;
4686;SDS011;2357;47.316;-1.348;2022-11-13T03:35:57;5.63;;;5.13;;
4686;SDS011;2357;47.316;-1.348;2022-11-13T03:38:23;16.40;;;5.70;;
4686;SDS011;2357;47.316;-1.348;2022-11-13T03:40:49;6.00;;;5.37;;
4686;SDS011;2357;47.316;-1.348;2022-11-13T03:43:14;9.33;;;5.40;;
4686;SDS011;2357;47.316;-1.348;2022-11-13T03:45:40;6.70;;;5.40;;
4686;SDS011;2357;47.316;-1.348;2022-11-13T03:48:09;12.27;;;5.10;;
4686;SDS011;2357;47.316;-1.348;2022-11-13T03:50:34;11.50;;;5.17;;
4686;SDS011;2357;47.316;-1.348;2022-11-13T03:53:00;9.00;;;5.77;;
4686;SDS011;2357;47.316;-1.348;2022-11-13T03:55:25;6.77;;;5.47;;
4686;SDS011;2357;47.316;-1.348;2022-11-13T03:57:51;7.07;;;4.83;;
4686;SDS011;2357;47.316;-1.348;2022-11-13T04:00:17;10.20;;;5.10;;
4686;SDS011;2357;47.316;-1.348;2022-11-13T04:02:42;6.30;;;5.60;;
4686;SDS011;2357;47.316;-1.348;2022-11-13T04:05:08;5.90;;;5.33;;
4686;SDS011;2357;47.316;-1.348;2022-11-13T04:07:34;9.03;;;6.20;;
4686;SDS011;2357;47.316;-1.348;2022-11-13T04:09:59;11.40;;;5.33;;
4686;SDS011;2357;47.316;-1.348;2022-11-13T04:12:25;5.63;;;5.10;;
4686;SDS011;2357;47.316;-1.348;2022-11-13T04:14:51;5.70;;;5.13;;
4686;SDS011;2357;47.316;-1.348;2022-11-13T04:17:16;8.60;;;5.27;;
4686;SDS011;2357;47.316;-1.348;2022-11-13T04:19:42;4.93;;;4.63;;
4686;SDS011;2357;47.316;-1.348;2022-11-13T04:22:07;5.13;;;4.73;;
4686;SDS011;2357;47.316;-1.348;2022-11-13T04:24:33;5.77;;;5.20;;
4686;SDS011;2357;47.316;-1.348;2022-11-13T04:26:58;5.30;;;4.80;;
4686;SDS011;2357;47.316;-1.348;2022-11-13T04:29:24;6.50;;;4.27;;
4686;SDS011;2357;47.316;-1.348;2022-11-13T04:31:50;4.27;;;3.80;;
4686;SDS011;2357;47.316;-1.348;2022-11-13T04:34:15;7.67;;;4.77;;
4686;SDS011;2357;47.316;-1.348;2022-11-13T04:36:41;11.60;;;5.23;;
4686;SDS011;2357;47.316;-1.348;2022-11-13T04:39:07;7.87;;;5.40;;
4686;SDS011;2357;47.316;-1.348;2022-11-13T04:41:32;7.43;;;5.40;;
4686;SDS011;2357;47.316;-1.348;2022-11-13T04:44:17;7.50;;;4.70;;
4686;SDS011;2357;47.316;-1.348;2022-11-13T04:46:42;5.53;;;4.97;;
4686;SDS011;2357;47.316;-1.348;2022-11-13T04:49:08;6.47;;;5.37;;
4686;SDS011;2357;47.316;-1.348;2022-11-13T04:51:33;6.03;;;5.43;;
4686;SDS011;2357;47.316;-1.348;2022-11-13T04:53:59;7.53;;;5.30;;
4686;SDS011;2357;47.316;-1.348;2022-11-13T04:56:25;9.37;;;4.87;;
4686;SDS011;2357;47.316;-1.348;2022-11-13T04:58:50;4.93;;;4.53;;
4686;SDS011;2357;47.316;-1.348;2022-11-13T05:01:16;7.63;;;5.50;;
4686;SDS011;2357;47.316;-1.348;2022-11-13T05:03:42;12.97;;;4.70;;
4686;SDS011;2357;47.316;-1.348;2022-11-13T05:06:08;5.30;;;4.50;;
4686;SDS011;2357;47.316;-1.348;2022-11-13T05:08:34;5.00;;;4.50;;
4686;SDS011;2357;47.316;-1.348;2022-11-13T05:11:01;6.93;;;5.30;;
4686;SDS011;2357;47.316;-1.348;2022-11-13T05:13:31;4.70;;;4.30;;
4686;SDS011;2357;47.316;-1.348;2022-11-13T05:16:04;5.60;;;4.63;;
4686;SDS011;2357;47.316;-1.348;2022-11-13T05:18:32;5.23;;;4.73;;
4686;SDS011;2357;47.316;-1.348;2022-11-13T05:21:00;5.23;;;4.50;;
4686;SDS011;2357;47.316;-1.348;2022-11-13T05:23:26;5.70;;;4.63;;
4686;SDS011;2357;47.316;-1.348;2022-11-13T05:25:51;8.87;;;4.47;;
4686;SDS011;2357;47.316;-1.348;2022-11-13T05:28:17;5.00;;;4.50;;
4686;SDS011;2357;47.316;-1.348;2022-11-13T05:30:43;4.67;;;4.27;;
4686;SDS011;2357;47.316;-1.348;2022-11-13T05:33:09;6.47;;;4.20;;
4686;SDS011;2357;47.316;-1.348;2022-11-13T05:35:34;6.70;;;4.80;;
4686;SDS011;2357;47.316;-1.348;2022-11-13T05:38:00;6.13;;;5.47;;
4686;SDS011;2357;47.316;-1.348;2022-11-13T05:40:26;5.90;;;4.27;;
4686;SDS011;2357;47.316;-1.348;2022-11-13T05:42:53;6.87;;;5.40;;
4686;SDS011;2357;47.316;-1.348;2022-11-13T05:45:19;4.70;;;4.40;;
4686;SDS011;2357;47.316;-1.348;2022-11-13T05:47:45;4.77;;;4.40;;
4686;SDS011;2357;47.316;-1.348;2022-11-13T05:50:11;4.60;;;4.20;;
4686;SDS011;2357;47.316;-1.348;2022-11-13T05:52:36;4.43;;;4.13;;
4686;SDS011;2357;47.316;-1.348;2022-11-13T05:55:02;5.67;;;4.50;;
4686;SDS011;2357;47.316;-1.348;2022-11-13T05:57:29;4.27;;;3.87;;
4686;SDS011;2357;47.316;-1.348;2022-11-13T05:59:54;5.13;;;4.83;;
4686;SDS011;2357;47.316;-1.348;2022-11-13T06:02:20;4.50;;;4.20;;
4686;SDS011;2357;47.316;-1.348;2022-11-13T06:04:47;5.27;;;4.50;;
4686;SDS011;2357;47.316;-1.348;2022-11-13T06:07:13;9.70;;;4.33;;
4686;SDS011;2357;47.316;-1.348;2022-11-13T06:09:39;4.60;;;4.20;;
4686;SDS011;2357;47.316;-1.348;2022-11-13T06:12:04;4.17;;;3.80;;
4686;SDS011;2357;47.316;-1.348;2022-11-13T06:14:30;4.60;;;4.30;;
4686;SDS011;2357;47.316;-1.348;2022-11-13T06:16:56;4.90;;;3.80;;
4686;SDS011;2357;47.316;-1.348;2022-11-13T06:19:22;6.00;;;4.07;;
4686;SDS011;2357;47.316;-1.348;2022-11-13T06:21:47;4.47;;;4.10;;
4686;SDS011;2357;47.316;-1.348;2022-11-13T06:24:13;4.70;;;4.30;;
4686;SDS011;2357;47.316;-1.348;2022-11-13T06:26:38;4.00;;;3.70;;
4686;SDS011;2357;47.316;-1.348;2022-11-13T06:29:05;3.97;;;3.67;;
4686;SDS011;2357;47.316;-1.348;2022-11-13T06:31:34;4.30;;;4.00;;
4686;SDS011;2357;47.316;-1.348;2022-11-13T06:34:00;5.17;;;3.90;;
4686;SDS011;2357;47.316;-1.348;2022-11-13T06:36:27;5.20;;;4.10;;
4686;SDS011;2357;47.316;-1.348;2022-11-13T06:38:54;4.40;;;4.10;;
4686;SDS011;2357;47.316;-1.348;2022-11-13T06:41:21;3.93;;;3.50;;
4686;SDS011;2357;47.316;-1.348;2022-11-13T06:43:53;4.37;;;4.07;;
4686;SDS011;2357;47.316;-1.348;2022-11-13T06:46:21;3.70;;;3.40;;
4686;SDS011;2357;47.316;-1.348;2022-11-13T06:48:48;4.10;;;3.70;;
4686;SDS011;2357;47.316;-1.348;2022-11-13T06:51:19;4.80;;;4.00;;
4686;SDS011;2357;47.316;-1.348;2022-11-13T06:53:46;4.80;;;4.47;;
4686;SDS011;2357;47.316;-1.348;2022-11-13T06:56:12;4.17;;;3.87;;
4686;SDS011;2357;47.316;-1.348;2022-11-13T06:58:38;5.03;;;4.47;;
4686;SDS011;2357;47.316;-1.348;2022-11-13T07:01:07;3.73;;;3.43;;
4686;SDS011;2357;47.316;-1.348;2022-11-13T07:03:35;4.10;;;3.70;;
4686;SDS011;2357;47.316;-1.348;2022-11-13T07:06:02;3.73;;;3.43;;
4686;SDS011;2357;47.316;-1.348;2022-11-13T07:08:29;4.43;;;4.03;;
4686;SDS011;2357;47.316;-1.348;2022-11-13T07:10:56;4.33;;;4.00;;
4686;SDS011;2357;47.316;-1.348;2022-11-13T07:13:22;4.43;;;4.03;;
4686;SDS011;2357;47.316;-1.348;2022-11-13T07:15:49;6.50;;;4.67;;
4686;SDS011;2357;47.316;-1.348;2022-11-13T07:18:14;5.20;;;4.70;;
4686;SDS011;2357;47.316;-1.348;2022-11-13T07:20:40;5.17;;;4.47;;
4686;SDS011;2357;47.316;-1.348;2022-11-13T07:23:06;4.30;;;3.87;;
4686;SDS011;2357;47.316;-1.348;2022-11-13T07:25:32;5.03;;;4.57;;
4686;SDS011;2357;47.316;-1.348;2022-11-13T07:27:57;4.63;;;3.87;;
4686;SDS011;2357;47.316;-1.348;2022-11-13T07:30:23;3.97;;;3.60;;
4686;SDS011;2357;47.316;-1.348;2022-11-13T07:32:49;4.43;;;4.10;;
4686;SDS011;2357;47.316;-1.348;2022-11-13T07:35:15;4.77;;;4.20;;
4686;SDS011;2357;47.316;-1.348;2022-11-13T07:37:42;5.00;;;4.50;;
4686;SDS011;2357;47.316;-1.348;2022-11-13T07:40:08;4.73;;;4.23;;
4686;SDS011;2357;47.316;-1.348;2022-11-13T07:42:35;8.63;;;4.70;;
4686;SDS011;2357;47.316;-1.348;2022-11-13T07:45:00;7.10;;;4.50;;
4686;SDS011;2357;47.316;-1.348;2022-11-13T07:47:26;5.33;;;4.93;;
4686;SDS011;2357;47.316;-1.348;2022-11-13T07:49:52;5.33;;;4.57;;
4686;SDS011;2357;47.316;-1.348;2022-11-13T07:52:18;5.33;;;4.27;;
4686;SDS011;2357;47.316;-1.348;2022-11-13T07:54:43;5.53;;;4.90;;
4686;SDS011;2357;47.316;-1.348;2022-11-13T07:57:09;5.47;;;4.33;;
4686;SDS011;2357;47.316;-1.348;2022-11-13T07:59:34;5.37;;;4.87;;
4686;SDS011;2357;47.316;-1.348;2022-11-13T08:02:00;6.03;;;4.57;;
4686;SDS011;2357;47.316;-1.348;2022-11-13T08:04:26;14.53;;;4.50;;
4686;SDS011;2357;47.316;-1.348;2022-11-13T08:06:53;6.18;;;4.90;;
4686;SDS011;2357;47.316;-1.348;2022-11-13T08:09:19;5.10;;;4.30;;
4686;SDS011;2357;47.316;-1.348;2022-11-13T08:11:44;5.13;;;4.30;;
4686;SDS011;2357;47.316;-1.348;2022-11-13T08:14:10;5.10;;;4.30;;
4686;SDS011;2357;47.316;-1.348;2022-11-13T08:16:36;4.23;;;3.93;;
4686;SDS011;2357;47.316;-1.348;2022-11-13T08:19:02;6.03;;;5.37;;
4686;SDS011;2357;47.316;-1.348;2022-11-13T08:21:28;5.17;;;4.37;;
4686;SDS011;2357;47.316;-1.348;2022-11-13T08:23:54;5.57;;;5.03;;
4686;SDS011;2357;47.316;-1.348;2022-11-13T08:26:20;9.07;;;4.83;;
4686;SDS011;2357;47.316;-1.348;2022-11-13T08:28:46;4.07;;;3.77;;
4686;SDS011;2357;47.316;-1.348;2022-11-13T08:31:13;6.80;;;4.40;;
4686;SDS011;2357;47.316;-1.348;2022-11-13T08:33:40;5.90;;;4.20;;
4686;SDS011;2357;47.316;-1.348;2022-11-13T08:36:07;5.63;;;4.60;;
4686;SDS011;2357;47.316;-1.348;2022-11-13T08:38:34;4.90;;;4.50;;
4686;SDS011;2357;47.316;-1.348;2022-11-13T08:41:00;5.53;;;4.67;;
4686;SDS011;2357;47.316;-1.348;2022-11-13T08:43:26;5.50;;;5.10;;
4686;SDS011;2357;47.316;-1.348;2022-11-13T08:45:52;5.10;;;4.63;;
4686;SDS011;2357;47.316;-1.348;2022-11-13T08:48:19;4.63;;;4.17;;
4686;SDS011;2357;47.316;-1.348;2022-11-13T08:50:45;5.50;;;5.00;;
4686;SDS011;2357;47.316;-1.348;2022-11-13T08:53:14;5.10;;;4.70;;
4686;SDS011;2357;47.316;-1.348;2022-11-13T08:55:40;6.27;;;4.97;;
4686;SDS011;2357;47.316;-1.348;2022-11-13T08:58:05;4.27;;;3.87;;
4686;SDS011;2357;47.316;-1.348;2022-11-13T09:00:31;5.00;;;4.03;;
4686;SDS011;2357;47.316;-1.348;2022-11-13T09:02:57;6.70;;;4.27;;
4686;SDS011;2357;47.316;-1.348;2022-11-13T09:05:24;7.73;;;4.40;;
4686;SDS011;2357;47.316;-1.348;2022-11-13T09:07:50;4.50;;;4.20;;
4686;SDS011;2357;47.316;-1.348;2022-11-13T09:10:23;4.30;;;3.90;;
4686;SDS011;2357;47.316;-1.348;2022-11-13T09:12:53;4.87;;;4.40;;
4686;SDS011;2357;47.316;-1.348;2022-11-13T09:15:23;4.97;;;4.50;;
4686;SDS011;2357;47.316;-1.348;2022-11-13T09:17:48;4.50;;;4.10;;
4686;SDS011;2357;47.316;-1.348;2022-11-13T09:20:14;4.03;;;3.70;;
4686;SDS011;2357;47.316;-1.348;2022-11-13T09:22:40;5.80;;;4.40;;
4686;SDS011;2357;47.316;-1.348;2022-11-13T09:25:06;4.80;;;4.33;;
4686;SDS011;2357;47.316;-1.348;2022-11-13T09:27:32;4.50;;;4.13;;
4686;SDS011;2357;47.316;-1.348;2022-11-13T09:29:57;4.63;;;3.73;;
4686;SDS011;2357;47.316;-1.348;2022-11-13T09:32:23;4.80;;;4.40;;
4686;SDS011;2357;47.316;-1.348;2022-11-13T09:34:49;3.90;;;3.60;;
4686;SDS011;2357;47.316;-1.348;2022-11-13T09:37:14;4.27;;;3.90;;
4686;SDS011;2357;47.316;-1.348;2022-11-13T09:39:40;4.97;;;4.50;;
4686;SDS011;2357;47.316;-1.348;2022-11-13T09:42:12;5.27;;;4.27;;
4686;SDS011;2357;47.316;-1.348;2022-11-13T09:44:42;8.40;;;4.60;;
4686;SDS011;2357;47.316;-1.348;2022-11-13T09:47:13;4.87;;;4.47;;
4686;SDS011;2357;47.316;-1.348;2022-11-13T09:49:53;4.90;;;4.50;;
4686;SDS011;2357;47.316;-1.348;2022-11-13T09:52:39;5.80;;;4.07;;
4686;SDS011;2357;47.316;-1.348;2022-11-13T09:55:10;4.47;;;4.10;;
4686;SDS011;2357;47.316;-1.348;2022-11-13T09:57:49;4.53;;;3.80;;
4686;SDS011;2357;47.316;-1.348;2022-11-13T10:00:27;5.17;;;4.63;;
4686;SDS011;2357;47.316;-1.348;2022-11-13T10:05:55;4.30;;;4.10;;
4686;SDS011;2357;47.316;-1.348;2022-11-13T10:08:25;3.97;;;3.77;;
4686;SDS011;2357;47.316;-1.348;2022-11-13T10:13:51;4.27;;;4.07;;
4686;SDS011;2357;47.316;-1.348;2022-11-13T10:16:31;4.90;;;4.50;;
4686;SDS011;2357;47.316;-1.348;2022-11-13T10:21:47;5.00;;;4.60;;
4686;SDS011;2357;47.316;-1.348;2022-11-13T10:24:17;4.43;;;4.03;;
4686;SDS011;2357;47.316;-1.348;2022-11-13T10:26:49;4.13;;;3.70;;
4686;SDS011;2357;47.316;-1.348;2022-11-13T10:29:16;4.50;;;4.20;;
4686;SDS011;2357;47.316;-1.348;2022-11-13T10:31:45;5.77;;;4.43;;
4686;SDS011;2357;47.316;-1.348;2022-11-13T10:34:12;4.53;;;4.20;;
4686;SDS011;2357;47.316;-1.348;2022-11-13T10:39:14;5.80;;;4.57;;
4686;SDS011;2357;47.316;-1.348;2022-11-13T10:41:46;4.63;;;4.27;;
4686;SDS011;2357;47.316;-1.348;2022-11-13T10:44:31;4.03;;;3.73;;
4686;SDS011;2357;47.316;-1.348;2022-11-13T10:47:04;5.13;;;4.67;;
4686;SDS011;2357;47.316;-1.348;2022-11-13T10:49:38;4.20;;;3.90;;
4686;SDS011;2357;47.316;-1.348;2022-11-13T10:52:11;4.80;;;4.50;;
4686;SDS011;2357;47.316;-1.348;2022-11-13T10:54:44;5.10;;;4.37;;
4686;SDS011;2357;47.316;-1.348;2022-11-13T10:57:19;5.03;;;4.63;;
4686;SDS011;2357;47.316;-1.348;2022-11-13T10:59:49;5.07;;;4.57;;
4686;SDS011;2357;47.316;-1.348;2022-11-13T11:04:48;5.50;;;5.00;;
4686;SDS011;2357;47.316;-1.348;2022-11-13T11:09:44;5.13;;;4.60;;
4686;SDS011;2357;47.316;-1.348;2022-11-13T11:12:11;12.43;;;6.37;;
4686;SDS011;2357;47.316;-1.348;2022-11-13T11:17:24;7.23;;;5.20;;
4686;SDS011;2357;47.316;-1.348;2022-11-13T11:23:07;6.13;;;5.10;;
4686;SDS011;2357;47.316;-1.348;2022-11-13T11:25:57;6.67;;;4.83;;
4686;SDS011;2357;47.316;-1.348;2022-11-13T11:28:28;5.30;;;4.80;;
4686;SDS011;2357;47.316;-1.348;2022-11-13T11:33:35;4.37;;;4.07;;
4686;SDS011;2357;47.316;-1.348;2022-11-13T11:36:12;9.17;;;4.30;;
4686;SDS011;2357;47.316;-1.348;2022-11-13T11:38:56;4.77;;;4.37;;
4686;SDS011;2357;47.316;-1.348;2022-11-13T11:41:37;4.63;;;4.00;;
4686;SDS011;2357;47.316;-1.348;2022-11-13T11:44:21;4.73;;;4.33;;
4686;SDS011;2357;47.316;-1.348;2022-11-13T11:47:14;3.70;;;3.40;;
4686;SDS011;2357;47.316;-1.348;2022-11-13T11:49:42;4.27;;;3.93;;
4686;SDS011;2357;47.316;-1.348;2022-11-13T11:57:54;4.90;;;4.40;;
4686;SDS011;2357;47.316;-1.348;2022-11-13T12:00:25;4.33;;;3.90;;
4686;SDS011;2357;47.316;-1.348;2022-11-13T12:10:45;4.90;;;4.10;;
4686;SDS011;2357;47.316;-1.348;2022-11-13T12:26:24;6.20;;;3.80;;
4686;SDS011;2357;47.316;-1.348;2022-11-13T12:29:08;3.97;;;3.57;;
4686;SDS011;2357;47.316;-1.348;2022-11-13T12:34:50;4.20;;;3.53;;
4686;SDS011;2357;47.316;-1.348;2022-11-13T12:37:27;4.57;;;3.00;;
4686;SDS011;2357;47.316;-1.348;2022-11-13T12:40:05;6.10;;;3.30;;
4686;SDS011;2357;47.316;-1.348;2022-11-13T12:42:45;4.47;;;3.17;;
4686;SDS011;2357;47.316;-1.348;2022-11-13T12:47:54;5.07;;;2.00;;
4686;SDS011;2357;47.316;-1.348;2022-11-13T12:53:11;3.37;;;2.30;;
4686;SDS011;2357;47.316;-1.348;2022-11-13T12:55:53;3.50;;;2.40;;
4686;SDS011;2357;47.316;-1.348;2022-11-13T12:58:24;5.33;;;2.53;;
4686;SDS011;2357;47.316;-1.348;2022-11-13T13:01:41;3.20;;;2.00;;
4686;SDS011;2357;47.316;-1.348;2022-11-13T13:04:33;6.90;;;2.77;;
4686;SDS011;2357;47.316;-1.348;2022-11-13T13:09:34;1.83;;;1.70;;
4686;SDS011;2357;47.316;-1.348;2022-11-13T13:15:29;3.27;;;1.70;;
4686;SDS011;2357;47.316;-1.348;2022-11-13T13:18:10;1.60;;;1.33;;
4686;SDS011;2357;47.316;-1.348;2022-11-13T13:20:39;1.97;;;1.23;;
4686;SDS011;2357;47.316;-1.348;2022-11-13T13:23:10;4.23;;;1.70;;
4686;SDS011;2357;47.316;-1.348;2022-11-13T13:25:38;1.60;;;1.20;;
4686;SDS011;2357;47.316;-1.348;2022-11-13T13:30:34;3.33;;;1.30;;
4686;SDS011;2357;47.316;-1.348;2022-11-13T13:36:05;2.50;;;1.20;;
4686;SDS011;2357;47.316;-1.348;2022-11-13T13:38:47;3.00;;;1.50;;
4686;SDS011;2357;47.316;-1.348;2022-11-13T13:41:27;5.53;;;1.80;;
4686;SDS011;2357;47.316;-1.348;2022-11-13T13:44:12;2.13;;;1.50;;
4686;SDS011;2357;47.316;-1.348;2022-11-13T13:47:02;5.60;;;1.30;;
4686;SDS011;2357;47.316;-1.348;2022-11-13T13:49:35;4.87;;;1.30;;
4686;SDS011;2357;47.316;-1.348;2022-11-13T13:52:01;5.80;;;1.20;;
4686;SDS011;2357;47.316;-1.348;2022-11-13T13:54:29;4.00;;;1.47;;
4686;SDS011;2357;47.316;-1.348;2022-11-13T13:56:57;4.13;;;1.17;;
4686;SDS011;2357;47.316;-1.348;2022-11-13T14:02:00;1.63;;;1.10;;
4686;SDS011;2357;47.316;-1.348;2022-11-13T14:04:28;1.83;;;1.40;;
4686;SDS011;2357;47.316;-1.348;2022-11-13T14:07:00;4.30;;;1.73;;
4686;SDS011;2357;47.316;-1.348;2022-11-13T14:09:27;1.23;;;0.90;;
4686;SDS011;2357;47.316;-1.348;2022-11-13T14:12:04;8.37;;;1.30;;
4686;SDS011;2357;47.316;-1.348;2022-11-13T14:14:31;6.13;;;1.20;;
4686;SDS011;2357;47.316;-1.348;2022-11-13T14:16:58;7.50;;;1.60;;
4686;SDS011;2357;47.316;-1.348;2022-11-13T14:19:25;5.80;;;1.30;;
4686;SDS011;2357;47.316;-1.348;2022-11-13T14:21:52;2.60;;;1.10;;
4686;SDS011;2357;47.316;-1.348;2022-11-13T14:24:26;4.10;;;1.10;;
4686;SDS011;2357;47.316;-1.348;2022-11-13T14:26:57;2.10;;;1.20;;
4686;SDS011;2357;47.316;-1.348;2022-11-13T14:29:34;1.30;;;1.20;;
4686;SDS011;2357;47.316;-1.348;2022-11-13T14:34:41;6.67;;;1.33;;
4686;SDS011;2357;47.316;-1.348;2022-11-13T14:37:27;3.83;;;1.40;;
4686;SDS011;2357;47.316;-1.348;2022-11-13T14:42:53;2.83;;;1.47;;
4686;SDS011;2357;47.316;-1.348;2022-11-13T14:50:32;3.70;;;1.47;;
4686;SDS011;2357;47.316;-1.348;2022-11-13T14:53:01;6.40;;;1.97;;
4686;SDS011;2357;47.316;-1.348;2022-11-13T14:55:30;3.83;;;1.67;;
4686;SDS011;2357;47.316;-1.348;2022-11-13T14:57:57;5.30;;;1.50;;
4686;SDS011;2357;47.316;-1.348;2022-11-13T15:00:31;2.47;;;1.30;;
4686;SDS011;2357;47.316;-1.348;2022-11-13T15:03:00;10.47;;;1.77;;
4686;SDS011;2357;47.316;-1.348;2022-11-13T15:05:28;5.63;;;2.03;;
4686;SDS011;2357;47.316;-1.348;2022-11-13T15:07:54;7.40;;;2.23;;
4686;SDS011;2357;47.316;-1.348;2022-11-13T15:10:22;2.13;;;1.13;;
4686;SDS011;2357;47.316;-1.348;2022-11-13T15:12:50;1.73;;;1.57;;
4686;SDS011;2357;47.316;-1.348;2022-11-13T15:15:24;7.37;;;1.53;;
4686;SDS011;2357;47.316;-1.348;2022-11-13T15:17:54;7.23;;;3.80;;
4686;SDS011;2357;47.316;-1.348;2022-11-13T15:20:21;4.53;;;2.93;;
4686;SDS011;2357;47.316;-1.348;2022-11-13T15:22:51;4.93;;;3.50;;
4686;SDS011;2357;47.316;-1.348;2022-11-13T15:25:18;7.15;;;2.25;;
4686;SDS011;2357;47.316;-1.348;2022-11-13T15:27:46;2.20;;;1.90;;
4686;SDS011;2357;47.316;-1.348;2022-11-13T15:30:12;8.13;;;1.97;;
4686;SDS011;2357;47.316;-1.348;2022-11-13T15:32:38;3.83;;;2.33;;
4686;SDS011;2357;47.316;-1.348;2022-11-13T15:35:05;2.40;;;1.47;;
4686;SDS011;2357;47.316;-1.348;2022-11-13T15:37:34;4.00;;;2.20;;
4686;SDS011;2357;47.316;-1.348;2022-11-13T15:40:00;6.83;;;1.70;;
4686;SDS011;2357;47.316;-1.348;2022-11-13T15:42:30;2.30;;;1.80;;
4686;SDS011;2357;47.316;-1.348;2022-11-13T15:44:58;4.83;;;2.27;;
4686;SDS011;2357;47.316;-1.348;2022-11-13T15:47:27;5.67;;;1.40;;
4686;SDS011;2357;47.316;-1.348;2022-11-13T15:49:55;1.10;;;1.10;;
4686;SDS011;2357;47.316;-1.348;2022-11-13T15:52:21;1.97;;;1.60;;
4686;SDS011;2357;47.316;-1.348;2022-11-13T15:54:48;6.33;;;1.20;;
4686;SDS011;2357;47.316;-1.348;2022-11-13T15:57:24;7.40;;;1.60;;
4686;SDS011;2357;47.316;-1.348;2022-11-13T15:59:51;4.10;;;1.93;;
4686;SDS011;2357;47.316;-1.348;2022-11-13T16:02:17;1.70;;;1.60;;
4686;SDS011;2357;47.316;-1.348;2022-11-13T16:04:43;3.37;;;1.40;;
4686;SDS011;2357;47.316;-1.348;2022-11-13T16:07:18;1.77;;;1.40;;
4686;SDS011;2357;47.316;-1.348;2022-11-13T16:09:50;3.33;;;1.70;;
4686;SDS011;2357;47.316;-1.348;2022-11-13T16:12:16;3.40;;;1.50;;
4686;SDS011;2357;47.316;-1.348;2022-11-13T16:14:42;14.07;;;1.97;;
4686;SDS011;2357;47.316;-1.348;2022-11-13T16:17:11;3.53;;;1.40;;
4686;SDS011;2357;47.316;-1.348;2022-11-13T16:19:38;3.17;;;1.70;;
4686;SDS011;2357;47.316;-1.348;2022-11-13T16:22:11;2.70;;;1.50;;
4686;SDS011;2357;47.316;-1.348;2022-11-13T16:24:42;6.73;;;1.77;;
4686;SDS011;2357;47.316;-1.348;2022-11-13T16:27:08;10.20;;;2.10;;
4686;SDS011;2357;47.316;-1.348;2022-11-13T16:29:47;3.40;;;1.97;;
4686;SDS011;2357;47.316;-1.348;2022-11-13T16:32:13;2.00;;;1.47;;
4686;SDS011;2357;47.316;-1.348;2022-11-13T16:34:43;13.47;;;2.23;;
4686;SDS011;2357;47.316;-1.348;2022-11-13T16:37:12;8.10;;;1.87;;
4686;SDS011;2357;47.316;-1.348;2022-11-13T16:39:43;4.90;;;1.97;;
4686;SDS011;2357;47.316;-1.348;2022-11-13T16:42:09;3.23;;;1.50;;